createdAt,value
2023-04-22T05:28:29.014Z,8.07
2023-04-22T05:30:56.002Z,9.20
2023-04-22T05:33:22.920Z,7.77
2023-04-22T05:35:51.191Z,8.00
2023-04-22T05:38:18.091Z,9.00
2023-04-22T05:40:45.106Z,8.57
2023-04-22T05:43:12.032Z,8.67
2023-04-22T05:45:39.009Z,7.83
2023-04-22T05:48:06.142Z,8.10
2023-04-22T05:50:33.137Z,8.67
2023-04-22T05:52:59.996Z,8.80
2023-04-22T05:55:26.969Z,8.97
2023-04-22T05:57:53.964Z,8.23
2023-04-22T06:00:20.855Z,9.00
2023-04-22T06:02:48.278Z,8.57
2023-04-22T06:05:15.651Z,8.00
2023-04-22T06:07:42.625Z,8.20
2023-04-22T06:10:10.156Z,8.37
2023-04-22T06:12:37.079Z,8.37
2023-04-22T06:15:05.145Z,7.70
2023-04-22T06:17:32.100Z,7.67
2023-04-22T06:19:59.045Z,8.57
2023-04-22T06:22:25.960Z,7.50
2023-04-22T06:24:52.869Z,8.20
2023-04-22T06:27:19.982Z,7.73
2023-04-22T06:29:46.875Z,7.20
2023-04-22T06:32:13.754Z,7.50
2023-04-22T06:34:40.695Z,8.60
2023-04-22T06:37:07.619Z,8.10
2023-04-22T06:39:34.569Z,7.30
2023-04-22T06:42:01.820Z,7.90
2023-04-22T06:44:29.357Z,8.40
2023-04-22T06:46:57.937Z,7.17
2023-04-22T06:49:25.341Z,7.97
2023-04-22T06:51:52.297Z,8.33
2023-04-22T06:54:19.309Z,7.17
2023-04-22T06:56:46.254Z,6.57
2023-04-22T06:59:13.189Z,7.10
2023-04-22T07:01:40.127Z,8.43
2023-04-22T07:04:07.110Z,7.23
2023-04-22T07:06:34.035Z,8.23
2023-04-22T07:09:00.898Z,7.27
2023-04-22T07:11:27.901Z,7.13
2023-04-22T07:13:54.845Z,7.60
2023-04-22T07:16:21.628Z,7.30
2023-04-22T07:18:48.657Z,7.17
2023-04-22T07:21:15.672Z,7.63
2023-04-22T07:23:42.594Z,6.90
2023-04-22T07:26:09.515Z,7.00
2023-04-22T07:28:36.512Z,10.40
2023-04-22T07:31:03.829Z,6.93
2023-04-22T07:33:30.769Z,7.30
2023-04-22T07:35:57.674Z,6.63
2023-04-22T07:38:25.816Z,6.83
2023-04-22T07:40:52.691Z,6.37
2023-04-22T07:43:20.029Z,7.00
2023-04-22T07:45:47.045Z,7.23
2023-04-22T07:48:13.984Z,6.90
2023-04-22T07:50:40.948Z,6.23
2023-04-22T07:53:07.999Z,6.20
2023-04-22T07:55:34.892Z,6.30
2023-04-22T07:58:06.218Z,7.80
2023-04-22T08:00:35.571Z,6.30
2023-04-22T08:03:04.069Z,6.70
2023-04-22T08:05:31.214Z,6.80
2023-04-22T08:07:58.146Z,5.60
2023-04-22T08:10:25.494Z,6.47
2023-04-22T08:12:52.451Z,6.20
2023-04-22T08:15:19.444Z,5.80
2023-04-22T08:17:46.393Z,5.50
2023-04-22T08:20:15.537Z,6.37
2023-04-22T08:22:45.369Z,6.40
2023-04-22T08:25:12.464Z,5.90
2023-04-22T08:32:35.170Z,6.67
2023-04-22T08:35:05.513Z,5.87
2023-04-22T08:37:32.791Z,6.60
2023-04-22T08:39:59.725Z,6.27
2023-04-22T08:42:27.923Z,6.10
2023-04-22T08:44:54.956Z,5.87
2023-04-22T08:47:22.485Z,5.70
2023-04-22T08:49:54.765Z,6.10
2023-04-22T08:52:21.868Z,6.60
2023-04-22T08:54:48.773Z,5.80
2023-04-22T08:57:17.574Z,6.40
2023-04-22T08:59:45.236Z,5.50
2023-04-22T09:02:18.075Z,6.03
2023-04-22T09:04:49.315Z,5.57
2023-04-22T09:07:25.243Z,5.60
2023-04-22T09:09:56.532Z,5.63
2023-04-22T09:12:25.301Z,5.80
2023-04-22T09:14:52.851Z,5.90
2023-04-22T09:17:33.896Z,6.00
2023-04-22T09:20:02.902Z,5.23
2023-04-22T09:22:44.714Z,5.90
2023-04-22T09:25:33.524Z,5.63
2023-04-22T09:28:00.885Z,5.53
2023-04-22T09:30:36.611Z,5.43
2023-04-22T09:33:07.878Z,4.83
2023-04-22T09:35:38.023Z,5.00
2023-04-22T09:38:08.466Z,5.57
2023-04-22T09:40:37.958Z,5.23
2023-04-22T09:43:07.322Z,5.30
2023-04-22T09:45:41.273Z,5.90
2023-04-22T09:48:18.329Z,5.20
2023-04-22T09:50:48.410Z,5.90
2023-04-22T09:53:18.479Z,5.77
2023-04-22T09:55:54.471Z,5.30
2023-04-22T09:58:27.627Z,6.77
2023-04-22T10:00:57.166Z,6.03
2023-04-22T10:03:24.297Z,5.87
2023-04-22T10:05:51.397Z,5.00
2023-04-22T10:08:18.594Z,4.80
2023-04-22T10:10:46.295Z,5.80
2023-04-22T10:13:13.389Z,4.90
2023-04-22T10:15:46.116Z,5.30
2023-04-22T10:18:18.099Z,4.50
2023-04-22T10:20:46.567Z,4.70
2023-04-22T10:23:23.747Z,5.10
2023-04-22T10:25:55.773Z,4.83
2023-04-22T10:28:24.674Z,5.73
2023-04-22T10:30:51.755Z,4.90
2023-04-22T10:33:21.509Z,4.73
2023-04-22T10:36:14.812Z,4.37
2023-04-22T10:39:03.009Z,4.80
2023-04-22T10:41:34.480Z,5.00
2023-04-22T10:44:10.719Z,4.37
2023-04-22T10:46:42.501Z,4.93
2023-04-22T10:49:11.364Z,4.97
2023-04-22T10:51:45.389Z,4.77
2023-04-22T10:54:32.525Z,5.00
2023-04-22T10:57:08.419Z,4.27
2023-04-22T10:59:47.008Z,5.03
2023-04-22T11:02:17.075Z,4.40
2023-04-22T11:04:44.165Z,5.00
2023-04-22T11:07:26.432Z,5.00
2023-04-22T11:10:00.643Z,5.83
2023-04-22T11:12:39.045Z,5.13
2023-04-22T11:15:06.741Z,5.53
2023-04-22T11:17:34.947Z,5.57
2023-04-22T11:20:03.501Z,5.30
2023-04-22T11:22:39.464Z,5.33
2023-04-22T11:25:07.458Z,6.13
2023-04-22T11:27:34.325Z,5.77
2023-04-22T11:30:16.429Z,5.83
2023-04-22T11:32:52.554Z,5.70
2023-04-22T11:35:23.033Z,6.20
2023-04-22T11:38:08.669Z,4.77
2023-04-22T11:40:41.309Z,5.27
2023-04-22T11:43:10.870Z,5.73
2023-04-22T11:45:39.488Z,5.40
2023-04-22T11:48:09.360Z,5.10
2023-04-22T11:50:39.510Z,4.77
2023-04-22T11:53:21.127Z,5.83
2023-04-22T11:55:52.456Z,5.10
2023-04-22T11:58:28.140Z,5.40
2023-04-22T12:00:58.274Z,4.80
2023-04-22T12:03:30.099Z,5.27
2023-04-22T12:06:06.517Z,5.47
2023-04-22T12:08:44.428Z,5.13
2023-04-22T12:11:12.706Z,5.90
2023-04-22T12:13:42.245Z,6.03
2023-04-22T12:16:20.115Z,5.33
2023-04-22T12:18:55.553Z,4.87
2023-04-22T12:21:25.942Z,5.43
2023-04-22T12:24:05.614Z,4.80
2023-04-22T12:26:32.615Z,5.70
2023-04-22T12:29:00.926Z,4.93
2023-04-22T12:31:28.260Z,5.50
2023-04-22T12:33:56.116Z,5.30
2023-04-22T12:36:24.094Z,5.07
2023-04-22T12:38:51.323Z,4.50
2023-04-22T12:41:18.294Z,5.37
2023-04-22T12:43:45.160Z,4.80
2023-04-22T12:46:12.187Z,4.37
2023-04-22T12:48:39.800Z,4.30
2023-04-22T12:51:07.003Z,4.63
2023-04-22T12:53:34.225Z,4.70
2023-04-22T12:56:01.376Z,4.87
2023-04-22T12:58:28.337Z,4.50
2023-04-22T13:00:55.298Z,4.90
2023-04-22T13:03:22.415Z,4.77
2023-04-22T13:05:49.500Z,5.80
2023-04-22T13:08:17.952Z,4.97
2023-04-22T13:10:44.857Z,5.30
2023-04-22T13:15:41.728Z,5.87
2023-04-22T13:18:08.655Z,5.37
2023-04-22T13:20:36.054Z,5.03
2023-04-22T13:23:04.697Z,5.20
2023-04-22T13:25:31.954Z,6.00
2023-04-22T13:27:58.919Z,5.37
2023-04-22T13:30:25.989Z,5.47
2023-04-22T13:32:53.046Z,5.73
2023-04-22T13:35:20.728Z,5.93
2023-04-22T13:37:47.812Z,5.63
2023-04-22T13:40:15.045Z,5.83
2023-04-22T13:42:41.956Z,6.37
2023-04-22T13:45:09.641Z,5.40
2023-04-22T13:47:36.589Z,5.40
2023-04-22T13:50:05.381Z,5.60
2023-04-22T13:52:32.463Z,5.23
2023-04-22T13:54:59.351Z,4.77
2023-04-22T13:57:26.352Z,5.40
2023-04-22T13:59:53.246Z,6.70
2023-04-22T14:02:20.359Z,6.70
2023-04-22T14:04:47.343Z,6.33
2023-04-22T14:07:14.422Z,7.67
2023-04-22T14:09:41.551Z,6.50
2023-04-22T14:12:11.118Z,5.43
2023-04-22T14:14:38.046Z,5.57
2023-04-22T14:17:05.079Z,5.30
2023-04-22T14:19:31.999Z,5.73
2023-04-22T14:21:58.966Z,5.23
2023-04-22T14:24:26.064Z,5.20
2023-04-22T14:26:54.000Z,6.40
2023-04-22T14:29:21.110Z,4.80
2023-04-22T14:31:49.813Z,5.13
2023-04-22T14:34:17.483Z,5.73
2023-04-22T14:36:44.482Z,4.77
2023-04-22T14:39:11.858Z,5.30
2023-04-22T14:41:39.177Z,5.80
2023-04-22T14:44:06.161Z,4.93
2023-04-22T14:46:33.193Z,6.10
2023-04-22T14:49:00.186Z,4.77
2023-04-22T14:51:28.940Z,5.70
2023-04-22T14:53:56.447Z,6.73
2023-04-22T14:56:24.291Z,4.60
2023-04-22T14:58:51.250Z,5.50
2023-04-22T15:01:18.228Z,5.37
2023-04-22T15:03:45.410Z,5.60
2023-04-22T15:06:12.416Z,5.07
2023-04-22T15:08:39.966Z,5.30
2023-04-22T15:11:06.953Z,5.57
2023-04-22T15:13:33.899Z,5.30
2023-04-22T15:16:00.967Z,5.10
2023-04-22T15:18:28.717Z,4.87
2023-04-22T15:20:55.613Z,5.30
2023-04-22T15:23:22.701Z,4.23
2023-04-22T15:25:49.641Z,5.23
2023-04-22T15:28:16.565Z,4.97
2023-04-22T15:30:43.860Z,4.43
2023-04-22T15:33:10.857Z,5.47
2023-04-22T15:35:37.762Z,5.10
2023-04-22T15:38:06.090Z,5.00
2023-04-22T15:40:32.987Z,5.23
2023-04-22T15:42:59.922Z,5.30
2023-04-22T15:45:26.886Z,4.87
2023-04-22T15:47:55.405Z,5.30
2023-04-22T15:50:23.480Z,4.73
2023-04-22T15:52:50.538Z,5.27
2023-04-22T15:55:17.484Z,4.53
2023-04-22T15:57:44.412Z,4.70
2023-04-22T16:00:13.878Z,4.00
2023-04-22T16:02:43.401Z,4.33
2023-04-22T16:05:14.740Z,3.93
2023-04-22T16:07:41.904Z,4.47
2023-04-22T16:10:10.078Z,4.10
2023-04-22T16:12:36.999Z,6.37
2023-04-22T16:15:04.437Z,4.83
2023-04-22T16:17:31.409Z,4.77
2023-04-22T16:19:58.471Z,4.87
2023-04-22T16:22:25.398Z,4.60
2023-04-22T16:24:52.402Z,4.73
2023-04-22T16:27:19.374Z,4.30
2023-04-22T16:29:46.624Z,3.83
2023-04-22T16:32:13.814Z,4.23
2023-04-22T16:34:40.798Z,4.60
2023-04-22T16:37:08.203Z,4.90
2023-04-22T16:39:35.451Z,4.37
2023-04-22T16:42:03.085Z,5.30
2023-04-22T16:44:30.039Z,5.17
2023-04-22T16:46:57.134Z,5.63
2023-04-22T16:49:24.111Z,5.90
2023-04-22T16:51:51.194Z,5.40
2023-04-22T16:54:18.121Z,4.83
2023-04-22T16:56:45.138Z,4.73
2023-04-22T16:59:12.253Z,5.00
2023-04-22T17:01:40.820Z,5.37
2023-04-22T17:04:08.666Z,5.47
2023-04-22T17:06:37.024Z,5.30
2023-04-22T17:09:06.361Z,5.50
2023-04-22T17:11:33.537Z,5.73
2023-04-22T17:14:00.459Z,5.83
2023-04-22T17:16:27.455Z,5.40
2023-04-22T17:18:54.377Z,6.17
2023-04-22T17:21:23.253Z,5.20
2023-04-22T17:23:50.651Z,5.87
2023-04-22T17:26:17.632Z,5.70
2023-04-22T17:28:44.652Z,5.97
2023-04-22T17:31:12.034Z,5.70
2023-04-22T17:33:40.797Z,5.70
2023-04-22T17:36:08.292Z,6.60
2023-04-22T17:38:35.731Z,5.50
2023-04-22T17:41:02.881Z,5.63
2023-04-22T17:43:29.997Z,6.10
2023-04-22T17:45:56.991Z,6.07
2023-04-22T17:48:24.145Z,5.93
2023-04-22T17:50:51.342Z,6.63
2023-04-22T17:53:18.229Z,6.40
2023-04-22T17:55:45.135Z,7.13
2023-04-22T17:58:12.775Z,6.70
2023-04-22T18:00:39.740Z,7.50
2023-04-22T18:03:06.839Z,7.30
2023-04-22T18:05:33.885Z,7.30
2023-04-22T18:08:02.769Z,6.47
2023-04-22T18:10:30.850Z,6.83
2023-04-22T18:12:57.886Z,7.63
2023-04-22T18:15:24.857Z,7.30
2023-04-22T18:17:52.016Z,7.37
2023-04-22T18:20:19.852Z,7.20
2023-04-22T18:22:49.693Z,7.80
2023-04-22T18:25:16.764Z,7.67
2023-04-22T18:27:44.102Z,8.10
2023-04-22T18:30:11.494Z,9.00
2023-04-22T18:32:38.627Z,8.93
2023-04-22T18:35:06.473Z,7.90
2023-04-22T18:37:34.720Z,8.40
2023-04-22T18:40:02.562Z,9.07
2023-04-22T18:42:30.194Z,8.80
2023-04-22T18:44:57.046Z,8.60
2023-04-22T18:47:23.989Z,9.07
2023-04-22T18:49:50.954Z,9.47
2023-04-22T18:52:18.424Z,8.57
2023-04-22T18:54:45.492Z,8.60
2023-04-22T18:57:12.547Z,9.03
2023-04-22T18:59:39.739Z,9.33
2023-04-22T19:02:06.972Z,8.33
2023-04-22T19:04:33.977Z,9.60
2023-04-22T19:07:01.085Z,8.40
2023-04-22T19:09:28.331Z,9.27
2023-04-22T19:11:55.668Z,10.10
2023-04-22T19:14:22.763Z,8.73
2023-04-22T19:16:49.670Z,9.00
2023-04-22T19:19:16.573Z,8.57
2023-04-22T19:21:43.931Z,8.17
2023-04-22T19:24:13.555Z,7.63
2023-04-22T19:26:41.279Z,8.23
2023-04-22T19:29:08.334Z,8.37
2023-04-22T19:31:35.628Z,8.20
2023-04-22T19:34:03.070Z,7.23
2023-04-22T19:36:30.047Z,8.37
2023-04-22T19:38:56.970Z,8.60
2023-04-22T19:41:24.116Z,7.93
2023-04-22T19:43:51.246Z,8.17
2023-04-22T19:46:18.232Z,7.63
2023-04-22T19:48:45.622Z,8.40
2023-04-22T19:51:12.745Z,8.37
2023-04-22T19:53:41.253Z,8.30
2023-04-22T19:56:09.658Z,8.23
2023-04-22T19:58:36.962Z,9.37
2023-04-22T20:01:04.667Z,10.17
2023-04-22T20:03:32.941Z,9.37
2023-04-22T20:06:00.759Z,9.27
2023-04-22T20:08:28.348Z,8.80
2023-04-22T20:10:55.790Z,9.40
2023-04-22T20:13:23.215Z,8.63
2023-04-22T20:15:50.796Z,10.37
2023-04-22T20:18:17.893Z,9.50
2023-04-22T20:20:48.699Z,9.40
2023-04-22T20:23:17.912Z,10.27
2023-04-22T20:25:45.707Z,10.90
2023-04-22T20:28:13.136Z,11.10
2023-04-22T20:30:40.795Z,11.67
2023-04-22T20:33:10.382Z,12.00
2023-04-22T20:35:38.913Z,11.90
2023-04-22T20:38:07.930Z,13.03
2023-04-22T20:40:35.807Z,11.27
2023-04-22T20:43:03.352Z,11.40
2023-04-22T20:45:30.594Z,12.70
2023-04-22T20:47:58.451Z,12.80
2023-04-22T20:50:26.632Z,11.60
2023-04-22T20:52:53.567Z,12.07
2023-04-22T20:55:21.732Z,12.37
2023-04-22T20:57:48.645Z,10.30
2023-04-22T21:00:16.122Z,11.00
2023-04-22T21:02:44.501Z,10.10
2023-04-22T21:05:12.459Z,12.53
2023-04-22T21:07:40.619Z,11.80
2023-04-22T21:10:08.931Z,11.20
2023-04-22T21:12:36.444Z,14.30
2023-04-22T21:15:03.978Z,11.77
2023-04-22T21:17:32.316Z,12.97
2023-04-22T21:20:00.798Z,12.40
2023-04-22T21:22:29.973Z,12.50
2023-04-22T21:24:58.631Z,13.20
2023-04-22T21:27:25.901Z,13.80
2023-04-22T21:29:54.171Z,11.47
2023-04-22T21:32:21.650Z,13.27
2023-04-22T21:34:48.562Z,11.17
2023-04-22T21:37:15.572Z,13.50
2023-04-22T21:39:42.556Z,11.97
2023-04-22T21:42:09.507Z,12.43
2023-04-22T21:44:38.216Z,13.30
2023-04-22T21:47:06.294Z,13.10
2023-04-22T21:49:33.258Z,12.50
2023-04-22T21:52:00.271Z,13.17
2023-04-22T21:54:27.248Z,13.07
2023-04-22T21:56:54.152Z,13.33
2023-04-22T21:59:21.377Z,11.87
2023-04-22T22:01:48.393Z,12.47
2023-04-22T22:04:16.362Z,11.00
2023-04-22T22:06:45.285Z,11.80
2023-04-22T22:09:13.692Z,11.53
2023-04-22T22:11:40.653Z,11.10
2023-04-22T22:14:07.543Z,10.83
2023-04-22T22:16:34.573Z,11.00
2023-04-22T22:19:04.470Z,11.30
2023-04-22T22:21:33.209Z,11.40
2023-04-22T22:24:00.273Z,10.90
2023-04-22T22:26:27.985Z,12.20
2023-04-22T22:28:55.272Z,12.10
2023-04-22T22:31:22.281Z,9.70
2023-04-22T22:33:49.270Z,10.80
2023-04-22T22:36:16.280Z,10.10
2023-04-22T22:38:43.280Z,9.03
2023-04-22T22:41:10.178Z,9.67
2023-04-22T22:43:37.108Z,10.10
2023-04-22T22:46:04.411Z,10.67
